createdAt,value
2024-01-05T00:02:25.427Z,5.22
2024-01-05T00:04:52.806Z,5.55
2024-01-05T00:07:20.028Z,3.80
2024-01-05T00:09:47.371Z,8.32
2024-01-05T00:12:14.422Z,5.35
2024-01-05T00:14:41.857Z,3.38
2024-01-05T00:17:08.986Z,4.03
2024-01-05T00:19:36.612Z,6.32
2024-01-05T00:22:03.892Z,3.83
2024-01-05T00:24:31.385Z,7.05
2024-01-05T00:27:00.558Z,4.47
2024-01-05T00:31:55.071Z,2.40
2024-01-05T00:34:22.513Z,3.38
2024-01-05T00:36:49.611Z,2.75
2024-01-05T00:39:17.621Z,3.92
2024-01-05T00:41:48.985Z,2.88
2024-01-05T00:44:16.532Z,2.20
2024-01-05T00:46:44.017Z,3.90
2024-01-05T00:49:11.773Z,4.15
2024-01-05T00:51:38.885Z,3.78
2024-01-05T00:54:06.325Z,3.25
2024-01-05T00:56:33.566Z,3.33
2024-01-05T00:59:00.962Z,3.45
2024-01-05T01:01:28.082Z,2.83
2024-01-05T01:03:55.665Z,5.20
2024-01-05T01:06:22.863Z,5.50
2024-01-05T01:08:50.401Z,3.15
2024-01-05T01:11:18.620Z,5.32
2024-01-05T01:13:46.072Z,2.15
2024-01-05T01:16:13.091Z,3.65
2024-01-05T01:18:40.845Z,2.05
2024-01-05T01:21:08.227Z,4.05
2024-01-05T01:23:35.762Z,3.47
2024-01-05T01:26:02.794Z,3.97
2024-01-05T01:28:30.774Z,3.35
2024-01-05T01:30:58.360Z,3.63
2024-01-05T01:33:26.032Z,2.83
2024-01-05T01:35:53.409Z,4.18
2024-01-05T01:38:20.939Z,3.03
2024-01-05T01:40:48.627Z,4.72
2024-01-05T01:43:25.675Z,4.30
2024-01-05T01:45:54.354Z,3.85
2024-01-05T01:48:22.002Z,5.80
2024-01-05T01:50:50.698Z,4.80
2024-01-05T01:53:21.738Z,6.05
2024-01-05T01:55:50.076Z,2.47
2024-01-05T01:58:19.294Z,4.25
2024-01-05T02:00:46.736Z,5.47
2024-01-05T02:03:18.540Z,5.43
2024-01-05T02:05:48.161Z,5.75
2024-01-05T02:10:43.750Z,5.15
2024-01-05T02:13:11.407Z,5.70
2024-01-05T02:15:38.539Z,3.63
2024-01-05T02:18:26.085Z,4.00
2024-01-05T02:20:53.399Z,3.72
2024-01-05T02:23:28.080Z,4.90
2024-01-05T02:25:56.190Z,5.30
2024-01-05T02:28:24.257Z,6.10
2024-01-05T02:30:55.444Z,4.82
2024-01-05T02:33:23.760Z,3.83
2024-01-05T02:35:51.583Z,5.07
2024-01-05T02:38:19.092Z,3.78
2024-01-05T02:40:46.148Z,2.88
2024-01-05T02:43:13.575Z,4.13
2024-01-05T02:45:40.812Z,3.45
2024-01-05T02:48:08.898Z,3.53
2024-01-05T02:50:36.290Z,4.07
2024-01-05T02:53:03.757Z,4.53
2024-01-05T02:55:30.831Z,4.38
2024-01-05T02:57:58.374Z,2.92
2024-01-05T03:00:25.473Z,6.72
2024-01-05T03:02:52.998Z,2.45
2024-01-05T03:05:20.355Z,2.03
2024-01-05T03:07:47.862Z,2.30
2024-01-05T03:10:14.986Z,2.95
2024-01-05T03:12:42.893Z,2.30
2024-01-05T03:15:10.220Z,2.92
2024-01-05T03:17:37.771Z,3.50
2024-01-05T03:20:05.333Z,4.35
2024-01-05T03:22:32.924Z,4.00
2024-01-05T03:24:59.987Z,2.65
2024-01-05T03:27:27.411Z,3.60
2024-01-05T03:29:54.607Z,2.28
2024-01-05T03:32:22.116Z,5.38
2024-01-05T03:34:49.255Z,4.03
2024-01-05T03:37:16.714Z,3.03
2024-01-05T03:39:43.759Z,5.32
2024-01-05T03:42:11.245Z,4.40
2024-01-05T03:44:38.271Z,2.42
2024-01-05T03:47:05.891Z,3.55
2024-01-05T03:49:33.044Z,4.50
2024-01-05T03:52:00.580Z,2.92
2024-01-05T03:54:27.884Z,3.83
2024-01-05T03:56:55.387Z,3.70
2024-01-05T03:59:22.510Z,3.05
2024-01-05T04:01:50.818Z,3.85
2024-01-05T04:04:18.339Z,2.60
2024-01-05T04:06:46.968Z,3.72
2024-01-05T04:09:14.327Z,2.60
2024-01-05T04:11:41.743Z,2.95
2024-01-05T04:14:09.386Z,3.30
2024-01-05T04:16:36.866Z,4.53
2024-01-05T04:19:04.206Z,4.10
2024-01-05T04:21:32.197Z,3.97
2024-01-05T04:23:59.666Z,3.00
2024-01-05T04:26:27.516Z,3.70
2024-01-05T04:28:54.809Z,3.60
2024-01-05T04:31:22.462Z,3.72
2024-01-05T04:33:50.076Z,3.42
2024-01-05T04:36:19.060Z,4.35
2024-01-05T04:38:46.306Z,2.97
2024-01-05T04:41:15.790Z,4.80
2024-01-05T04:43:46.405Z,3.65
2024-01-05T04:46:13.884Z,4.18
2024-01-05T04:48:41.125Z,7.82
2024-01-05T04:51:08.788Z,3.47
2024-01-05T04:53:35.845Z,3.25
2024-01-05T04:56:04.425Z,3.95
2024-01-05T04:58:31.627Z,4.40
2024-01-05T05:00:59.469Z,3.03
2024-01-05T05:03:28.059Z,2.63
2024-01-05T05:05:55.794Z,3.95
2024-01-05T05:08:23.092Z,8.32
2024-01-05T05:10:50.693Z,17.73
2024-01-05T05:13:17.826Z,15.90
2024-01-05T05:15:45.528Z,6.22
2024-01-05T05:18:12.709Z,42.15
2024-01-05T05:20:40.286Z,34.22
2024-01-05T05:23:07.318Z,29.13
2024-01-05T05:25:34.684Z,8.63
2024-01-05T05:28:01.749Z,4.80
2024-01-05T05:30:29.247Z,3.22
2024-01-05T05:32:56.592Z,4.03
2024-01-05T05:35:24.074Z,5.63
2024-01-05T05:37:51.323Z,8.02
2024-01-05T05:40:18.810Z,7.88
2024-01-05T05:42:45.865Z,11.15
2024-01-05T05:45:13.372Z,14.07
2024-01-05T05:47:40.970Z,20.85
2024-01-05T05:50:08.734Z,13.30
2024-01-05T05:52:38.643Z,13.57
2024-01-05T05:55:06.890Z,9.65
2024-01-05T05:57:34.119Z,16.60
2024-01-05T06:00:01.589Z,13.35
2024-01-05T06:02:28.843Z,16.48
2024-01-05T06:04:56.445Z,13.13
2024-01-05T06:07:25.069Z,15.55
2024-01-05T06:09:52.517Z,7.28
2024-01-05T06:12:19.680Z,14.65
2024-01-05T06:14:47.197Z,11.70
2024-01-05T06:17:14.402Z,15.07
2024-01-05T06:19:41.917Z,12.35
2024-01-05T06:22:09.175Z,16.27
2024-01-05T06:24:36.753Z,9.38
2024-01-05T06:27:04.211Z,8.25
2024-01-05T06:29:31.686Z,8.05
2024-01-05T06:31:58.872Z,14.88
2024-01-05T06:34:26.529Z,10.45
2024-01-05T06:36:53.609Z,19.10
2024-01-05T06:39:21.040Z,85.07
2024-01-05T06:41:48.195Z,97.25
2024-01-05T06:44:15.671Z,28.70
2024-01-05T06:46:42.654Z,20.02
2024-01-05T06:49:10.440Z,19.40
2024-01-05T06:51:41.307Z,19.77
2024-01-05T06:54:10.005Z,19.02
2024-01-05T06:56:38.077Z,19.50
2024-01-05T06:59:05.722Z,18.20
2024-01-05T07:01:32.906Z,14.35
2024-01-05T07:04:00.835Z,17.98
2024-01-05T07:06:28.019Z,14.73
2024-01-05T07:08:56.463Z,17.67
2024-01-05T07:11:24.560Z,19.38
2024-01-05T07:13:52.644Z,10.35
2024-01-05T07:16:21.039Z,8.98
2024-01-05T07:18:49.452Z,15.27
2024-01-05T07:21:47.015Z,17.55
2024-01-05T07:24:16.726Z,41.40
2024-01-05T07:26:44.473Z,58.45
2024-01-05T07:29:37.353Z,37.83
2024-01-05T07:32:05.986Z,40.05
2024-01-05T07:34:33.613Z,29.92
2024-01-05T07:37:00.767Z,51.85
2024-01-05T07:39:28.217Z,36.10
2024-01-05T07:41:55.682Z,21.50
2024-01-05T07:44:23.078Z,13.48
2024-01-05T07:46:50.203Z,11.27
2024-01-05T07:49:17.742Z,13.65
2024-01-05T07:51:45.196Z,28.15
2024-01-05T07:54:12.806Z,34.65
2024-01-05T07:56:40.043Z,15.43
2024-01-05T07:59:07.515Z,17.88
2024-01-05T08:01:34.796Z,14.88
2024-01-05T08:04:02.504Z,12.90
2024-01-05T08:06:30.203Z,21.27
2024-01-05T08:08:57.858Z,17.95
2024-01-05T08:11:25.153Z,14.55
2024-01-05T08:13:53.060Z,16.13
2024-01-05T08:16:20.303Z,17.35
2024-01-05T08:18:47.919Z,18.15
2024-01-05T08:21:15.386Z,112.75
2024-01-05T08:23:42.779Z,26.88
2024-01-05T08:26:09.926Z,20.67
2024-01-05T08:28:37.345Z,9.18
2024-01-05T08:31:04.690Z,13.35
2024-01-05T08:33:32.273Z,10.35
2024-01-05T08:35:59.572Z,12.73
2024-01-05T08:38:27.028Z,14.32
2024-01-05T08:40:54.212Z,13.60
2024-01-05T08:43:22.027Z,13.32
2024-01-05T08:45:49.348Z,17.13
2024-01-05T08:48:21.079Z,16.00
2024-01-05T08:50:48.392Z,8.82
2024-01-05T08:53:15.826Z,22.55
2024-01-05T08:55:42.934Z,23.75
2024-01-05T08:58:11.546Z,15.32
2024-01-05T09:00:38.849Z,15.35
2024-01-05T09:03:10.290Z,16.10
2024-01-05T09:05:37.534Z,10.43
2024-01-05T09:08:05.329Z,10.27
2024-01-05T09:10:35.207Z,16.65
2024-01-05T09:13:02.629Z,24.50
2024-01-05T09:15:29.922Z,35.33
2024-01-05T09:17:57.562Z,16.20
2024-01-05T09:20:25.223Z,26.52
2024-01-05T09:22:52.833Z,9.85
2024-01-05T09:25:19.924Z,8.20
2024-01-05T09:27:50.262Z,7.78
2024-01-05T09:30:17.802Z,14.23
2024-01-05T09:32:45.369Z,44.60
2024-01-05T09:35:12.572Z,31.38
2024-01-05T09:37:47.226Z,13.23
2024-01-05T09:40:35.293Z,36.17
2024-01-05T09:43:24.466Z,54.95
2024-01-05T09:46:11.749Z,26.63
2024-01-05T09:49:04.714Z,24.23
2024-01-05T09:51:53.284Z,14.38
2024-01-05T09:54:40.954Z,12.60
2024-01-05T09:57:28.958Z,12.63
2024-01-05T10:00:16.954Z,33.70
2024-01-05T10:03:09.286Z,28.58
2024-01-05T10:05:57.613Z,14.80
2024-01-05T10:08:44.798Z,7.72
2024-01-05T10:11:38.100Z,9.98
2024-01-05T10:14:29.598Z,29.45
2024-01-05T10:17:17.532Z,58.00
2024-01-05T10:20:16.032Z,14.20
2024-01-05T10:23:06.594Z,18.00
2024-01-05T10:25:54.143Z,14.25
2024-01-05T10:28:41.672Z,18.85
2024-01-05T10:31:28.905Z,6.35
2024-01-05T10:34:16.629Z,5.80
2024-01-05T10:37:05.728Z,9.10
2024-01-05T10:39:53.973Z,9.00
2024-01-05T10:42:41.069Z,9.52
2024-01-05T10:45:29.608Z,7.88
2024-01-05T10:48:18.241Z,6.78
2024-01-05T10:51:07.496Z,7.68
2024-01-05T10:53:57.617Z,10.43
2024-01-05T10:56:45.924Z,11.35
2024-01-05T10:59:33.057Z,10.27
2024-01-05T11:02:25.339Z,9.90
2024-01-05T11:05:14.937Z,13.30
2024-01-05T11:08:05.684Z,9.50
2024-01-05T11:11:28.373Z,19.50
2024-01-05T11:15:00.478Z,23.75
2024-01-05T11:18:17.101Z,14.30
2024-01-05T11:21:21.135Z,12.38
2024-01-05T11:24:09.153Z,10.00
2024-01-05T11:26:56.865Z,15.73
2024-01-05T11:29:50.586Z,9.30
2024-01-05T11:32:49.362Z,11.60
2024-01-05T11:35:46.878Z,14.05
2024-01-05T11:38:35.151Z,15.18
2024-01-05T11:41:22.294Z,13.18
2024-01-05T11:44:33.104Z,14.38
2024-01-05T11:47:42.575Z,12.68
2024-01-05T11:50:35.319Z,7.88
2024-01-05T11:53:24.712Z,11.70
2024-01-05T11:58:59.793Z,29.38
2024-01-05T12:01:52.365Z,25.23
2024-01-05T12:04:47.873Z,33.42
2024-01-05T12:07:35.537Z,25.02
2024-01-05T12:10:29.766Z,16.70
2024-01-05T12:13:26.370Z,27.35
2024-01-05T12:16:14.580Z,8.07
2024-01-05T12:19:02.300Z,4.93
2024-01-05T12:21:54.073Z,5.47
2024-01-05T12:24:41.614Z,5.50
2024-01-05T12:27:37.204Z,2.95
2024-01-05T12:30:25.017Z,5.40
2024-01-05T12:33:12.368Z,4.28
2024-01-05T12:35:59.870Z,4.65
2024-01-05T12:38:46.962Z,4.22
2024-01-05T12:41:34.950Z,9.07
2024-01-05T12:44:22.007Z,8.77
2024-01-05T12:47:09.416Z,6.38
2024-01-05T12:49:56.657Z,8.45
2024-01-05T12:52:44.072Z,6.97
2024-01-05T12:55:34.726Z,10.18
2024-01-05T12:58:22.098Z,7.07
2024-01-05T13:01:23.149Z,6.35
2024-01-05T13:04:10.933Z,7.68
2024-01-05T13:06:58.259Z,8.10
2024-01-05T13:09:45.861Z,7.95
2024-01-05T13:12:33.042Z,13.48
2024-01-05T13:15:21.046Z,10.35
2024-01-05T13:18:08.360Z,21.73
2024-01-05T13:20:56.131Z,13.43
2024-01-05T13:23:46.281Z,9.88
2024-01-05T13:26:33.685Z,18.15
2024-01-05T13:29:20.906Z,60.60
2024-01-05T13:32:08.445Z,42.53
2024-01-05T13:34:55.747Z,25.95
2024-01-05T13:37:44.221Z,22.45
2024-01-05T13:40:31.635Z,27.98
2024-01-05T13:43:19.045Z,17.27
2024-01-05T13:46:07.475Z,20.85
2024-01-05T13:48:54.920Z,20.63
2024-01-05T13:51:42.114Z,37.78
2024-01-05T13:54:33.128Z,23.08
2024-01-05T13:57:20.528Z,38.53
2024-01-05T14:00:08.592Z,55.67
2024-01-05T14:02:56.442Z,41.80
2024-01-05T14:05:43.875Z,32.08
2024-01-05T14:08:30.995Z,36.40
2024-01-05T14:11:18.844Z,44.47
2024-01-05T14:14:05.872Z,46.95
2024-01-05T14:16:53.223Z,134.40
2024-01-05T14:19:43.968Z,93.85
2024-01-05T14:22:35.058Z,68.93
2024-01-05T14:25:22.274Z,52.95
2024-01-05T14:28:09.557Z,86.85
2024-01-05T14:30:56.716Z,42.78
2024-01-05T14:33:44.266Z,45.25
2024-01-05T14:36:31.510Z,57.47
2024-01-05T14:39:19.748Z,34.90
2024-01-05T14:42:06.934Z,41.85
2024-01-05T14:44:55.052Z,54.92
2024-01-05T14:47:43.007Z,167.88
2024-01-05T14:50:30.528Z,142.50
2024-01-05T14:53:18.502Z,110.70
2024-01-05T14:56:07.380Z,99.32
2024-01-05T14:58:54.493Z,131.27
2024-01-05T15:01:41.857Z,120.35
2024-01-05T15:04:32.080Z,87.55
2024-01-05T15:07:20.164Z,106.55
2024-01-05T15:10:08.610Z,120.78
2024-01-05T15:12:56.231Z,112.10
2024-01-05T15:15:43.870Z,97.30
2024-01-05T15:18:32.567Z,84.40
2024-01-05T15:21:26.671Z,107.45
2024-01-05T15:24:14.302Z,146.43
2024-01-05T15:27:01.383Z,114.97
2024-01-05T15:29:48.960Z,106.20
2024-01-05T15:32:36.378Z,102.40
2024-01-05T15:35:23.885Z,105.55
2024-01-05T15:38:11.023Z,105.38
2024-01-05T15:40:58.342Z,90.43
2024-01-05T15:43:45.321Z,82.65
2024-01-05T15:46:32.736Z,86.97
2024-01-05T15:49:19.925Z,92.10
2024-01-05T15:52:07.316Z,154.05
2024-01-05T15:54:54.462Z,170.00
2024-01-05T15:57:42.179Z,251.77
2024-01-05T16:00:29.996Z,140.93
2024-01-05T16:03:17.467Z,98.45
2024-01-05T16:06:10.248Z,80.70
2024-01-05T16:08:57.629Z,63.83
2024-01-05T16:11:44.949Z,78.88
2024-01-05T16:14:32.389Z,89.40
2024-01-05T16:17:19.519Z,187.35
2024-01-05T16:20:07.601Z,141.95
2024-01-05T16:22:54.752Z,144.27
2024-01-05T16:25:45.132Z,110.22
2024-01-05T16:28:32.183Z,91.85
2024-01-05T16:31:21.263Z,93.13
2024-01-05T16:34:09.044Z,180.55
2024-01-05T16:36:56.466Z,179.02
2024-01-05T16:39:45.827Z,163.50
2024-01-05T16:42:33.931Z,153.90
2024-01-05T16:45:21.151Z,140.02
2024-01-05T16:48:08.640Z,148.13
2024-01-05T16:50:55.964Z,136.10
2024-01-05T16:53:43.334Z,146.75
2024-01-05T16:56:32.505Z,139.00
2024-01-05T17:02:09.058Z,104.80
2024-01-05T17:04:58.314Z,107.30
2024-01-05T17:07:45.559Z,98.97
2024-01-05T17:10:32.900Z,240.73
2024-01-05T17:13:20.091Z,247.02
2024-01-05T17:16:11.168Z,259.90
2024-01-05T17:19:01.695Z,313.42
2024-01-05T17:21:50.237Z,325.90
2024-01-05T17:24:39.532Z,200.18
2024-01-05T17:27:27.115Z,116.50
2024-01-05T17:30:17.129Z,57.40
2024-01-05T17:33:05.238Z,35.65
2024-01-05T17:35:56.556Z,35.25
2024-01-05T17:38:44.304Z,36.47
2024-01-05T17:41:31.661Z,28.67
2024-01-05T17:44:19.239Z,24.80
2024-01-05T17:47:06.890Z,20.38
2024-01-05T17:49:54.445Z,20.90
2024-01-05T17:52:41.609Z,20.42
2024-01-05T17:55:29.129Z,17.27
2024-01-05T17:58:16.431Z,16.73
2024-01-05T18:00:43.937Z,20.20
2024-01-05T18:03:11.167Z,21.42
2024-01-05T18:05:38.628Z,17.80
2024-01-05T18:08:06.062Z,65.35
2024-01-05T18:10:33.634Z,135.00
2024-01-05T18:13:00.700Z,152.77
2024-01-05T18:15:28.248Z,177.27
2024-01-05T18:17:55.501Z,170.32
2024-01-05T18:20:23.054Z,201.90
2024-01-05T18:22:50.168Z,331.50
2024-01-05T18:25:17.642Z,349.00
2024-01-05T18:27:45.402Z,361.88
2024-01-05T18:30:13.517Z,384.20
2024-01-05T18:32:40.722Z,279.10
2024-01-05T18:35:08.674Z,224.32
2024-01-05T18:37:35.832Z,183.45
2024-01-05T18:40:04.823Z,185.13
2024-01-05T18:42:31.874Z,187.17
2024-01-05T18:44:59.425Z,123.00
2024-01-05T18:47:27.948Z,276.23
2024-01-05T18:49:55.436Z,322.30
2024-01-05T18:52:22.732Z,327.85
2024-01-05T18:54:50.243Z,435.45
2024-01-05T18:57:19.157Z,320.45
2024-01-05T18:59:46.713Z,236.57
2024-01-05T19:02:13.845Z,132.35
2024-01-05T19:04:41.456Z,58.60
2024-01-05T19:07:08.672Z,44.67
2024-01-05T19:09:36.172Z,23.75
2024-01-05T19:12:03.971Z,20.92
2024-01-05T19:14:31.468Z,23.13
2024-01-05T19:16:59.341Z,20.25
2024-01-05T19:19:26.952Z,26.20
2024-01-05T19:21:57.017Z,28.77
2024-01-05T19:24:29.007Z,29.38
2024-01-05T19:26:56.434Z,75.47
2024-01-05T19:29:23.826Z,51.13
2024-01-05T19:31:51.081Z,16.30
2024-01-05T19:34:18.672Z,20.95
2024-01-05T19:36:46.736Z,30.83
2024-01-05T19:39:14.678Z,57.97
2024-01-05T19:41:46.725Z,96.80
2024-01-05T19:44:18.427Z,113.80
2024-01-05T19:46:46.002Z,146.82
2024-01-05T19:49:14.503Z,158.88
2024-01-05T19:51:48.908Z,380.50
2024-01-05T19:54:18.931Z,263.52
2024-01-05T19:56:48.247Z,208.13
2024-01-05T19:59:15.798Z,202.32
2024-01-05T20:01:46.887Z,148.10
2024-01-05T20:04:17.030Z,133.65
2024-01-05T20:06:49.778Z,160.20
2024-01-05T20:09:18.278Z,98.00
2024-01-05T20:11:46.503Z,50.28
2024-01-05T20:14:14.158Z,67.87
2024-01-05T20:16:41.258Z,113.82
2024-01-05T20:19:30.632Z,233.93
2024-01-05T20:21:59.549Z,385.80
2024-01-05T20:24:27.025Z,316.92
2024-01-05T20:26:54.230Z,245.45
2024-01-05T20:29:21.748Z,206.23
2024-01-05T20:31:49.347Z,195.23
2024-01-05T20:34:16.996Z,217.57
2024-01-05T20:36:44.244Z,111.78
2024-01-05T20:39:12.902Z,134.38
2024-01-05T20:41:40.189Z,194.90
2024-01-05T20:44:09.075Z,283.80
2024-01-05T20:46:41.653Z,293.80
2024-01-05T20:49:09.344Z,194.23
2024-01-05T20:51:36.557Z,172.02
2024-01-05T20:54:07.476Z,123.47
2024-01-05T20:56:34.691Z,136.38
2024-01-05T20:59:02.141Z,104.53
2024-01-05T21:01:29.372Z,95.30
2024-01-05T21:03:56.848Z,97.72
2024-01-05T21:06:25.709Z,111.38
2024-01-05T21:08:53.427Z,207.80
2024-01-05T21:11:23.664Z,272.17
2024-01-05T21:13:51.143Z,218.73
2024-01-05T21:16:18.974Z,173.38
2024-01-05T21:18:47.685Z,100.80
2024-01-05T21:21:14.877Z,70.38
2024-01-05T21:23:42.349Z,46.97
2024-01-05T21:26:09.949Z,31.20
2024-01-05T21:28:37.357Z,38.22
2024-01-05T21:31:05.563Z,115.75
2024-01-05T21:33:33.314Z,121.63
2024-01-05T21:36:00.480Z,92.18
2024-01-05T21:38:28.109Z,120.78
2024-01-05T21:40:55.228Z,76.15
2024-01-05T21:43:24.948Z,40.00
2024-01-05T21:45:52.332Z,48.05
2024-01-05T21:48:19.883Z,75.80
2024-01-05T21:50:47.040Z,71.88
2024-01-05T21:53:14.602Z,108.82
2024-01-05T21:55:41.700Z,136.32
2024-01-05T21:58:12.008Z,240.38
2024-01-05T22:00:40.867Z,177.68
2024-01-05T22:03:08.564Z,73.53
2024-01-05T22:05:35.805Z,85.75
2024-01-05T22:08:03.310Z,82.72
2024-01-05T22:10:30.425Z,73.13
2024-01-05T22:12:58.898Z,76.10
2024-01-05T22:15:26.016Z,73.85
2024-01-05T22:17:54.493Z,91.78
2024-01-05T22:20:22.134Z,154.15
2024-01-05T22:22:50.268Z,161.45
2024-01-05T22:25:17.438Z,140.10
2024-01-05T22:27:46.192Z,142.88
2024-01-05T22:30:13.651Z,111.18
2024-01-05T22:32:41.127Z,113.35
2024-01-05T22:35:11.154Z,124.97
2024-01-05T22:37:38.985Z,71.53
2024-01-05T22:40:07.427Z,48.00
2024-01-05T22:42:35.018Z,48.58
2024-01-05T22:45:02.049Z,53.28
2024-01-05T22:47:30.402Z,48.35
2024-01-05T22:49:57.624Z,28.23
2024-01-05T22:52:25.242Z,34.80
2024-01-05T22:54:53.802Z,73.28
2024-01-05T22:57:24.896Z,109.63
2024-01-05T22:59:52.068Z,120.35
2024-01-05T23:02:19.454Z,73.45
2024-01-05T23:04:46.698Z,92.75
2024-01-05T23:07:14.324Z,59.20
2024-01-05T23:09:41.560Z,51.90
2024-01-05T23:12:09.672Z,47.47
2024-01-05T23:14:36.743Z,38.55
2024-01-05T23:17:04.551Z,92.32
2024-01-05T23:19:31.748Z,102.57
2024-01-05T23:21:59.263Z,101.75
2024-01-05T23:24:28.653Z,38.13
2024-01-05T23:26:56.170Z,32.72
2024-01-05T23:29:24.814Z,29.17
2024-01-05T23:31:52.335Z,39.25
2024-01-05T23:34:19.537Z,29.33
2024-01-05T23:36:47.125Z,31.60
2024-01-05T23:39:15.079Z,35.35
2024-01-05T23:41:42.722Z,26.25
2024-01-05T23:44:09.944Z,23.45
2024-01-05T23:46:37.416Z,20.45
2024-01-05T23:49:04.490Z,22.25
2024-01-05T23:51:32.439Z,17.70
2024-01-05T23:53:59.623Z,17.25
2024-01-05T23:56:27.025Z,14.77
2024-01-05T23:58:54.880Z,14.32
